createdAt,value
2017-12-21T00:02:13.842Z,93.15
2017-12-21T00:04:41.350Z,87.57
2017-12-21T00:07:09.766Z,87.68
2017-12-21T00:09:37.256Z,79.22
2017-12-21T00:12:04.774Z,82.70
2017-12-21T00:14:33.030Z,92.85
2017-12-21T00:17:00.518Z,89.87
2017-12-21T00:19:28.839Z,80.00
2017-12-21T00:21:56.326Z,75.05
2017-12-21T00:24:23.818Z,85.55
2017-12-21T00:26:51.354Z,83.43
2017-12-21T00:29:18.851Z,87.75
2017-12-21T00:31:46.340Z,85.22
2017-12-21T00:34:13.841Z,77.28
2017-12-21T00:36:42.090Z,76.20
2017-12-21T00:39:09.944Z,81.68
2017-12-21T00:41:37.438Z,66.32
2017-12-21T00:44:05.928Z,65.12
2017-12-21T00:46:35.582Z,70.30
2017-12-21T00:49:03.086Z,72.12
2017-12-21T00:51:32.125Z,76.60
2017-12-21T00:53:59.973Z,80.93
2017-12-21T00:56:27.481Z,79.80
2017-12-21T00:58:54.966Z,96.10
2017-12-21T01:01:23.242Z,94.55
2017-12-21T01:03:51.527Z,93.22
2017-12-21T01:06:19.022Z,109.25
2017-12-21T01:08:46.510Z,105.65
2017-12-21T01:11:14.010Z,108.87
2017-12-21T01:13:41.499Z,100.90
2017-12-21T01:16:08.982Z,99.50
2017-12-21T01:18:37.628Z,88.75
2017-12-21T01:21:05.126Z,99.85
2017-12-21T01:23:32.614Z,97.03
2017-12-21T01:26:00.139Z,86.40
2017-12-21T01:28:27.720Z,100.03
2017-12-21T01:30:55.205Z,101.43
2017-12-21T01:33:22.710Z,99.28
2017-12-21T01:35:50.210Z,88.43
2017-12-21T01:38:18.480Z,108.15
2017-12-21T01:40:46.754Z,111.45
2017-12-21T01:43:15.010Z,99.55
2017-12-21T01:45:43.348Z,101.68
2017-12-21T01:48:10.867Z,99.93
2017-12-21T01:50:39.120Z,84.37
2017-12-21T01:53:06.611Z,85.25
2017-12-21T01:55:34.898Z,80.35
2017-12-21T01:58:02.387Z,81.57
2017-12-21T02:00:29.868Z,80.57
2017-12-21T02:02:57.367Z,82.40
2017-12-21T02:05:25.618Z,89.55
2017-12-21T02:07:53.449Z,73.00
2017-12-21T02:10:20.966Z,94.43
2017-12-21T02:12:49.238Z,87.55
2017-12-21T02:15:16.718Z,77.32
2017-12-21T02:17:44.226Z,87.45
2017-12-21T02:20:12.510Z,92.43
2017-12-21T02:22:40.006Z,102.53
2017-12-21T02:25:07.518Z,83.40
2017-12-21T02:27:35.009Z,75.87
2017-12-21T02:30:03.266Z,70.57
2017-12-21T02:32:30.785Z,78.07
2017-12-21T02:34:58.282Z,71.20
2017-12-21T02:37:25.762Z,59.63
2017-12-21T02:39:54.589Z,81.53
2017-12-21T02:42:22.158Z,73.12
2017-12-21T02:44:49.651Z,67.47
2017-12-21T02:47:17.962Z,68.30
2017-12-21T02:49:45.447Z,64.03
2017-12-21T02:52:12.934Z,77.40
2017-12-21T02:54:40.487Z,72.45
2017-12-21T02:57:07.983Z,63.67
2017-12-21T02:59:36.238Z,72.40
2017-12-21T03:02:03.742Z,64.18
2017-12-21T03:04:31.234Z,76.90
2017-12-21T03:06:58.730Z,72.75
2017-12-21T03:09:27.006Z,71.28
2017-12-21T03:11:56.044Z,73.80
2017-12-21T03:14:23.544Z,64.65
2017-12-21T03:16:51.051Z,76.15
2017-12-21T03:19:18.551Z,73.18
2017-12-21T03:21:46.042Z,60.30
2017-12-21T03:24:14.328Z,75.62
2017-12-21T03:26:42.636Z,75.93
2017-12-21T03:29:10.122Z,73.80
2017-12-21T03:31:37.618Z,79.05
2017-12-21T03:34:05.868Z,81.18
2017-12-21T03:36:33.354Z,71.87
2017-12-21T03:39:00.871Z,92.82
2017-12-21T03:41:28.363Z,68.55
2017-12-21T03:43:56.618Z,77.40
2017-12-21T03:46:24.122Z,72.55
2017-12-21T03:48:51.626Z,89.68
2017-12-21T03:51:19.124Z,71.93
2017-12-21T03:53:47.398Z,80.55
2017-12-21T03:56:15.666Z,89.93
2017-12-21T03:58:43.930Z,103.82
2017-12-21T04:01:11.570Z,81.63
2017-12-21T04:03:39.062Z,83.07
2017-12-21T04:06:07.317Z,99.93
2017-12-21T04:08:34.838Z,84.68
2017-12-21T04:11:03.042Z,88.32
2017-12-21T04:13:30.538Z,93.60
2017-12-21T04:15:58.806Z,88.30
2017-12-21T04:18:27.058Z,97.75
2017-12-21T04:20:54.550Z,88.18
2017-12-21T04:23:22.826Z,81.95
2017-12-21T04:25:51.078Z,92.90
2017-12-21T04:28:18.566Z,116.00
2017-12-21T04:30:46.839Z,96.18
2017-12-21T04:33:16.550Z,90.93
2017-12-21T04:35:44.809Z,85.12
2017-12-21T04:38:13.075Z,91.22
2017-12-21T04:40:41.475Z,83.57
2017-12-21T04:43:09.762Z,93.28
2017-12-21T04:45:37.277Z,93.03
2017-12-21T04:48:04.778Z,99.05
2017-12-21T04:50:32.270Z,75.85
2017-12-21T04:52:59.788Z,87.10
2017-12-21T04:55:28.062Z,67.03
2017-12-21T04:57:56.314Z,87.78
2017-12-21T05:00:24.382Z,76.80
2017-12-21T05:02:51.884Z,97.22
2017-12-21T05:05:20.131Z,91.45
2017-12-21T05:07:47.647Z,91.00
2017-12-21T05:10:15.136Z,86.43
2017-12-21T05:12:42.839Z,96.03
2017-12-21T05:15:11.143Z,107.75
2017-12-21T05:17:38.638Z,89.00
2017-12-21T05:20:06.134Z,100.60
2017-12-21T05:22:33.662Z,80.85
2017-12-21T05:25:01.151Z,73.72
2017-12-21T05:27:28.641Z,102.40
2017-12-21T05:29:56.162Z,107.63
2017-12-21T05:32:25.258Z,102.57
2017-12-21T05:34:53.509Z,79.80
2017-12-21T05:37:21.034Z,89.32
2017-12-21T05:39:48.530Z,86.47
2017-12-21T05:42:16.026Z,92.55
2017-12-21T05:44:43.534Z,76.57
2017-12-21T05:47:11.027Z,77.15
2017-12-21T05:49:39.294Z,80.15
2017-12-21T05:52:06.807Z,77.65
2017-12-21T05:54:34.293Z,85.70
2017-12-21T05:57:01.800Z,77.70
2017-12-21T05:59:29.298Z,77.07
2017-12-21T06:01:56.785Z,69.82
2017-12-21T06:04:24.269Z,91.75
2017-12-21T06:06:51.782Z,80.18
2017-12-21T06:09:19.263Z,77.07
2017-12-21T06:11:47.517Z,72.30
2017-12-21T06:14:15.038Z,96.45
2017-12-21T06:16:42.534Z,71.35
2017-12-21T06:19:10.055Z,63.85
2017-12-21T06:21:37.574Z,74.35
2017-12-21T06:24:05.859Z,75.57
2017-12-21T06:29:07.938Z,83.07
2017-12-21T06:31:36.927Z,89.47
2017-12-21T06:34:05.182Z,83.95
2017-12-21T06:36:32.686Z,74.72
2017-12-21T06:39:00.174Z,81.12
2017-12-21T06:41:27.678Z,77.00
2017-12-21T06:43:55.177Z,72.35
2017-12-21T06:46:22.663Z,67.43
2017-12-21T06:48:50.154Z,70.70
2017-12-21T06:51:18.520Z,63.50
2017-12-21T06:53:46.815Z,59.22
2017-12-21T06:56:15.070Z,65.40
2017-12-21T06:58:42.594Z,69.45
2017-12-21T07:01:10.090Z,64.82
2017-12-21T07:03:37.834Z,59.55
2017-12-21T07:06:06.130Z,67.93
2017-12-21T07:08:34.985Z,58.05
2017-12-21T07:11:02.479Z,55.97
2017-12-21T07:13:30.004Z,58.87
2017-12-21T07:15:57.490Z,53.55
2017-12-21T07:18:24.982Z,62.22
2017-12-21T07:20:53.250Z,62.83
2017-12-21T07:23:22.854Z,55.83
2017-12-21T07:25:50.330Z,47.85
2017-12-21T07:28:18.778Z,59.17
2017-12-21T07:30:46.307Z,63.53
2017-12-21T07:33:13.810Z,56.90
2017-12-21T07:35:42.110Z,60.45
2017-12-21T07:38:09.602Z,66.65
2017-12-21T07:40:37.090Z,50.08
2017-12-21T07:43:05.074Z,53.08
2017-12-21T07:45:32.559Z,71.05
2017-12-21T07:48:00.286Z,61.78
2017-12-21T07:50:29.750Z,63.38
2017-12-21T07:52:57.610Z,70.60
2017-12-21T07:55:25.103Z,63.47
2017-12-21T07:57:52.623Z,74.32
2017-12-21T08:00:20.160Z,56.55
2017-12-21T08:02:47.614Z,71.05
2017-12-21T08:05:17.258Z,80.43
2017-12-21T08:07:44.756Z,68.28
2017-12-21T08:10:12.327Z,80.50
2017-12-21T08:12:41.858Z,73.22
2017-12-21T08:15:09.920Z,57.17
2017-12-21T08:17:37.902Z,62.15
2017-12-21T08:20:05.418Z,80.40
2017-12-21T08:22:32.913Z,77.80
2017-12-21T08:25:00.411Z,74.37
2017-12-21T08:27:27.914Z,57.95
2017-12-21T08:29:56.110Z,75.53
2017-12-21T08:32:23.622Z,58.15
2017-12-21T08:34:51.148Z,57.33
2017-12-21T08:37:18.645Z,55.03
2017-12-21T08:39:46.160Z,63.17
2017-12-21T08:42:13.686Z,50.50
2017-12-21T08:44:41.961Z,54.17
2017-12-21T08:47:10.215Z,60.20
2017-12-21T08:49:37.794Z,55.97
2017-12-21T08:52:06.074Z,51.55
2017-12-21T08:54:34.350Z,48.30
2017-12-21T08:57:02.626Z,53.47
2017-12-21T08:59:30.882Z,57.67
2017-12-21T09:01:58.368Z,63.55
2017-12-21T09:04:26.650Z,57.13
2017-12-21T09:06:54.910Z,38.92
2017-12-21T09:09:24.007Z,52.55
2017-12-21T09:11:53.166Z,57.42
2017-12-21T09:14:20.666Z,46.92
2017-12-21T09:16:48.943Z,45.75
2017-12-21T09:19:17.225Z,42.40
2017-12-21T09:21:45.494Z,54.35
2017-12-21T09:24:13.766Z,57.10
2017-12-21T09:26:42.106Z,46.45
2017-12-21T09:29:09.615Z,40.67
2017-12-21T09:31:37.877Z,51.13
2017-12-21T09:34:05.456Z,40.20
2017-12-21T09:36:33.718Z,42.10
2017-12-21T09:39:01.203Z,46.45
2017-12-21T09:41:28.722Z,40.42
2017-12-21T09:43:56.210Z,35.08
2017-12-21T09:46:25.170Z,34.53
2017-12-21T09:48:52.690Z,36.58
2017-12-21T09:51:20.189Z,31.87
2017-12-21T09:53:47.671Z,31.65
2017-12-21T09:56:15.950Z,31.05
2017-12-21T09:58:44.214Z,34.88
2017-12-21T10:01:12.502Z,37.47
2017-12-21T10:03:40.784Z,42.15
2017-12-21T10:06:09.038Z,36.75
2017-12-21T10:08:36.578Z,31.00
2017-12-21T10:11:04.129Z,32.17
2017-12-21T10:13:31.614Z,33.80
2017-12-21T10:15:59.097Z,36.05
2017-12-21T10:18:26.614Z,38.67
2017-12-21T10:20:55.038Z,39.35
2017-12-21T10:23:24.714Z,37.58
2017-12-21T10:25:52.211Z,42.45
2017-12-21T10:28:19.711Z,37.92
2017-12-21T10:30:47.198Z,34.63
2017-12-21T10:33:16.686Z,36.88
2017-12-21T10:35:44.473Z,29.87
2017-12-21T10:38:12.770Z,36.20
2017-12-21T10:40:41.559Z,28.10
2017-12-21T10:43:11.099Z,30.85
2017-12-21T10:45:41.187Z,39.33
2017-12-21T10:48:09.450Z,34.15
2017-12-21T10:50:39.322Z,33.45
2017-12-21T10:53:06.810Z,35.28
2017-12-21T10:55:34.295Z,30.17
2017-12-21T10:58:02.719Z,32.10
2017-12-21T11:00:31.698Z,37.13
2017-12-21T11:02:59.204Z,40.30
2017-12-21T11:05:27.531Z,42.40
2017-12-21T11:07:55.888Z,38.10
2017-12-21T11:10:23.384Z,35.13
2017-12-21T11:12:50.878Z,37.20
2017-12-21T11:15:19.106Z,32.00
2017-12-21T11:17:46.595Z,31.40
2017-12-21T11:20:14.448Z,29.05
2017-12-21T11:22:42.689Z,33.20
2017-12-21T11:25:10.178Z,31.50
2017-12-21T11:27:37.666Z,32.90
2017-12-21T11:30:05.179Z,36.85
2017-12-21T11:32:32.662Z,32.85
2017-12-21T11:35:00.150Z,38.75
2017-12-21T11:37:28.434Z,36.50
2017-12-21T11:39:56.706Z,34.28
2017-12-21T11:42:24.986Z,36.63
2017-12-21T11:44:53.734Z,33.05
2017-12-21T11:47:22.671Z,41.25
2017-12-21T11:49:50.936Z,39.47
2017-12-21T11:52:19.218Z,38.25
2017-12-21T11:54:47.489Z,34.38
2017-12-21T11:57:15.757Z,41.72
2017-12-21T11:59:43.322Z,45.28
2017-12-21T12:02:10.806Z,36.28
2017-12-21T12:04:38.306Z,44.05
2017-12-21T12:07:05.811Z,38.88
2017-12-21T12:09:34.090Z,47.92
2017-12-21T12:12:02.346Z,40.95
2017-12-21T12:14:29.874Z,42.47
2017-12-21T12:16:57.367Z,41.37
2017-12-21T12:19:24.865Z,40.58
2017-12-21T12:21:52.398Z,40.53
2017-12-21T12:24:20.671Z,44.90
2017-12-21T12:26:48.926Z,48.87
2017-12-21T12:29:16.456Z,45.22
2017-12-21T12:31:43.951Z,54.15
2017-12-21T12:34:11.448Z,42.78
2017-12-21T12:36:38.966Z,43.40
2017-12-21T12:39:06.459Z,47.65
2017-12-21T12:41:33.962Z,47.38
2017-12-21T12:44:01.471Z,45.08
2017-12-21T12:46:29.738Z,39.03
2017-12-21T12:48:58.004Z,42.53
2017-12-21T12:51:25.510Z,46.40
2017-12-21T12:53:53.002Z,51.80
2017-12-21T12:56:20.495Z,46.70
2017-12-21T12:58:48.792Z,51.95
2017-12-21T13:01:16.292Z,55.22
2017-12-21T13:03:43.790Z,47.70
2017-12-21T13:06:12.088Z,52.05
2017-12-21T13:08:39.680Z,61.17
2017-12-21T13:11:07.174Z,56.08
2017-12-21T13:13:35.461Z,74.97
2017-12-21T13:16:03.718Z,74.80
2017-12-21T13:18:31.227Z,66.30
2017-12-21T13:20:58.826Z,67.10
2017-12-21T13:23:26.315Z,77.03
2017-12-21T13:25:54.574Z,79.28
2017-12-21T13:28:22.102Z,76.28
2017-12-21T13:30:49.589Z,71.50
2017-12-21T13:33:17.080Z,79.93
2017-12-21T13:35:44.606Z,73.10
2017-12-21T13:38:12.090Z,83.07
2017-12-21T13:40:39.602Z,83.30
2017-12-21T13:43:07.125Z,64.90
2017-12-21T13:45:34.664Z,83.37
2017-12-21T13:48:02.922Z,90.22
2017-12-21T13:50:30.468Z,84.40
2017-12-21T13:52:57.954Z,94.28
2017-12-21T13:55:26.223Z,84.20
2017-12-21T13:57:55.706Z,86.65
2017-12-21T14:00:23.219Z,79.50
2017-12-21T14:02:50.718Z,110.55
2017-12-21T14:05:18.250Z,119.32
2017-12-21T14:07:45.751Z,118.05
2017-12-21T14:10:13.254Z,130.95
2017-12-21T14:12:40.782Z,103.68
2017-12-21T14:15:09.043Z,120.62
2017-12-21T14:17:36.534Z,110.65
2017-12-21T14:20:04.062Z,95.95
2017-12-21T14:22:31.546Z,101.82
2017-12-21T14:24:59.051Z,118.45
2017-12-21T14:27:26.560Z,156.48
2017-12-21T14:29:54.819Z,129.43
2017-12-21T14:32:22.319Z,170.77
2017-12-21T14:34:49.848Z,155.30
2017-12-21T14:37:17.351Z,166.40
2017-12-21T14:39:45.382Z,145.27
2017-12-21T14:42:13.693Z,148.77
2017-12-21T14:44:41.188Z,167.63
2017-12-21T14:47:08.678Z,181.07
2017-12-21T14:49:36.954Z,199.95
2017-12-21T14:52:05.222Z,139.73
2017-12-21T14:54:33.510Z,372.63
2017-12-21T14:57:01.795Z,284.08
2017-12-21T14:59:29.282Z,211.75
2017-12-21T15:01:56.776Z,184.93
2017-12-21T15:04:24.302Z,154.45
2017-12-21T15:06:51.799Z,192.20
2017-12-21T15:09:19.854Z,228.18
2017-12-21T15:11:47.374Z,279.42
2017-12-21T15:14:14.870Z,204.77
2017-12-21T15:16:42.372Z,225.50
2017-12-21T15:19:10.657Z,179.35
2017-12-21T15:21:38.903Z,167.80
2017-12-21T15:24:06.393Z,145.50
2017-12-21T15:26:33.931Z,155.37
2017-12-21T15:29:02.194Z,177.43
2017-12-21T15:31:29.692Z,151.32
2017-12-21T15:33:57.203Z,141.25
2017-12-21T15:36:24.825Z,155.70
2017-12-21T15:38:52.314Z,143.23
2017-12-21T15:41:19.840Z,105.05
2017-12-21T15:43:47.422Z,124.77
2017-12-21T15:46:15.639Z,130.57
2017-12-21T15:48:43.914Z,132.83
2017-12-21T15:51:11.758Z,147.67
2017-12-21T15:53:39.249Z,99.13
2017-12-21T15:56:07.526Z,117.53
2017-12-21T15:58:35.803Z,108.83
2017-12-21T16:01:04.078Z,125.67
2017-12-21T16:03:31.602Z,112.57
2017-12-21T16:05:59.094Z,128.07
2017-12-21T16:08:27.360Z,124.32
2017-12-21T16:10:55.635Z,141.93
2017-12-21T16:13:23.906Z,121.32
2017-12-21T16:15:51.405Z,122.85
2017-12-21T16:18:18.934Z,117.97
2017-12-21T16:20:46.439Z,156.75
2017-12-21T16:23:13.938Z,152.02
2017-12-21T16:25:41.452Z,145.02
2017-12-21T16:28:08.942Z,123.07
2017-12-21T16:30:36.434Z,128.50
2017-12-21T16:33:04.715Z,104.78
2017-12-21T16:35:32.982Z,117.43
2017-12-21T16:38:00.469Z,115.70
2017-12-21T16:40:27.991Z,122.80
2017-12-21T16:42:55.487Z,83.10
2017-12-21T16:45:22.988Z,105.07
2017-12-21T16:47:50.491Z,105.80
2017-12-21T16:50:17.990Z,74.82
2017-12-21T16:52:45.502Z,83.13
2017-12-21T16:55:13.116Z,75.80
2017-12-21T16:57:40.663Z,76.10
2017-12-21T17:00:08.158Z,75.03
2017-12-21T17:02:35.670Z,66.33
2017-12-21T17:05:03.163Z,67.15
2017-12-21T17:07:30.675Z,64.80
2017-12-21T17:09:58.182Z,67.10
2017-12-21T17:12:25.696Z,77.17
2017-12-21T17:14:53.194Z,65.07
2017-12-21T17:17:22.789Z,78.20
2017-12-21T17:19:50.278Z,59.47
2017-12-21T17:22:17.783Z,82.68
2017-12-21T17:24:45.295Z,73.97
2017-12-21T17:27:12.786Z,60.97
2017-12-21T17:29:40.283Z,67.90
2017-12-21T17:32:07.811Z,70.93
2017-12-21T17:34:35.298Z,71.07
2017-12-21T17:37:02.802Z,83.55
2017-12-21T17:39:31.073Z,90.35
2017-12-21T17:41:58.707Z,75.43
2017-12-21T17:44:26.221Z,81.72
2017-12-21T17:46:54.524Z,78.60
2017-12-21T17:49:22.046Z,79.37
2017-12-21T17:51:50.310Z,81.63
2017-12-21T17:54:18.600Z,73.95
2017-12-21T17:56:46.898Z,69.50
2017-12-21T17:59:14.367Z,71.75
2017-12-21T18:01:41.875Z,67.72
2017-12-21T18:04:10.375Z,68.28
2017-12-21T18:06:38.650Z,64.37
2017-12-21T18:09:06.958Z,54.83
2017-12-21T18:11:35.139Z,63.80
2017-12-21T18:14:02.642Z,64.13
2017-12-21T18:16:30.162Z,72.90
2017-12-21T18:18:58.214Z,73.62
2017-12-21T18:21:27.378Z,57.92
2017-12-21T18:23:55.654Z,67.50
2017-12-21T18:26:24.268Z,59.70
2017-12-21T18:28:52.347Z,66.03
2017-12-21T18:31:21.358Z,57.92
2017-12-21T18:33:49.759Z,59.90
2017-12-21T18:36:18.211Z,51.97
2017-12-21T18:38:45.719Z,50.90
2017-12-21T18:41:13.992Z,53.30
2017-12-21T18:43:41.719Z,50.53
2017-12-21T18:46:09.281Z,51.37
2017-12-21T18:48:37.475Z,46.80
2017-12-21T18:51:05.751Z,38.57
2017-12-21T18:53:33.294Z,49.73
2017-12-21T18:56:01.598Z,47.23
2017-12-21T18:58:29.095Z,55.27
2017-12-21T19:00:56.690Z,40.57
2017-12-21T19:03:24.197Z,50.00
2017-12-21T19:05:52.493Z,43.83
2017-12-21T19:08:20.860Z,44.27
2017-12-21T19:10:49.126Z,42.15
2017-12-21T19:13:17.383Z,50.83
2017-12-21T19:15:44.902Z,46.00
2017-12-21T19:18:12.407Z,50.45
2017-12-21T19:20:39.895Z,40.13
2017-12-21T19:23:08.177Z,43.27
2017-12-21T19:25:35.670Z,44.30
2017-12-21T19:28:03.181Z,43.13
2017-12-21T19:30:31.480Z,45.88
2017-12-21T19:32:58.982Z,45.55
2017-12-21T19:35:26.470Z,50.53
2017-12-21T19:37:55.650Z,50.15
2017-12-21T19:40:23.146Z,45.47
2017-12-21T19:42:50.643Z,44.38
2017-12-21T19:45:18.189Z,51.53
2017-12-21T19:47:45.691Z,44.15
2017-12-21T19:50:14.003Z,47.30
2017-12-21T19:52:43.078Z,47.80
2017-12-21T19:55:11.353Z,58.50
2017-12-21T19:57:38.843Z,52.80
2017-12-21T20:00:06.399Z,58.63
2017-12-21T20:02:34.768Z,44.28
2017-12-21T20:05:02.254Z,48.75
2017-12-21T20:07:30.219Z,51.78
2017-12-21T20:09:57.739Z,48.08
2017-12-21T20:12:26.010Z,43.67
2017-12-21T20:14:54.328Z,50.12
2017-12-21T20:17:21.826Z,40.65
2017-12-21T20:19:49.337Z,42.10
2017-12-21T20:22:16.939Z,38.20
2017-12-21T20:24:44.526Z,34.08
2017-12-21T20:27:12.788Z,35.50
2017-12-21T20:29:40.314Z,29.95
2017-12-21T20:32:08.610Z,30.73
2017-12-21T20:34:36.098Z,37.97
2017-12-21T20:37:05.254Z,29.37
2017-12-21T20:39:33.187Z,34.45
2017-12-21T20:42:01.463Z,35.38
2017-12-21T20:44:28.970Z,35.70
2017-12-21T20:46:56.483Z,41.45
2017-12-21T20:49:23.998Z,36.40
2017-12-21T20:51:51.520Z,39.53
2017-12-21T20:54:19.018Z,42.67
2017-12-21T20:56:46.750Z,38.75
2017-12-21T20:59:14.262Z,39.35
2017-12-21T21:01:42.534Z,49.08
2017-12-21T21:04:11.406Z,46.17
2017-12-21T21:06:39.630Z,57.70
2017-12-21T21:09:07.136Z,60.30
2017-12-21T21:11:34.637Z,48.70
2017-12-21T21:14:02.236Z,54.80
2017-12-21T21:16:31.410Z,44.05
2017-12-21T21:18:58.907Z,55.13
2017-12-21T21:21:26.446Z,45.83
2017-12-21T21:23:54.538Z,50.70
2017-12-21T21:26:22.281Z,48.57
2017-12-21T21:28:49.790Z,46.42
2017-12-21T21:31:18.870Z,47.87
2017-12-21T21:33:46.368Z,54.58
2017-12-21T21:36:13.890Z,53.97
2017-12-21T21:38:41.369Z,45.30
2017-12-21T21:41:09.630Z,45.60
2017-12-21T21:43:37.158Z,43.72
2017-12-21T21:46:05.466Z,43.63
2017-12-21T21:48:32.966Z,46.67
2017-12-21T21:51:01.399Z,43.70
2017-12-21T21:53:29.594Z,50.23
2017-12-21T21:55:57.417Z,39.20
2017-12-21T21:58:24.919Z,47.30
2017-12-21T22:00:52.403Z,50.83
2017-12-21T22:03:21.111Z,48.20
2017-12-21T22:05:48.622Z,53.33
2017-12-21T22:08:18.354Z,48.47
2017-12-21T22:10:45.846Z,61.87
2017-12-21T22:13:13.882Z,60.90
2017-12-21T22:15:41.399Z,61.37
2017-12-21T22:18:10.262Z,67.35
2017-12-21T22:20:37.791Z,71.35
2017-12-21T22:23:06.173Z,78.10
2017-12-21T22:25:33.662Z,78.70
2017-12-21T22:28:01.198Z,78.37
2017-12-21T22:30:28.713Z,79.47
2017-12-21T22:32:56.206Z,70.47
2017-12-21T22:35:23.716Z,73.87
2017-12-21T22:37:52.371Z,144.67
2017-12-21T22:40:19.862Z,137.82
2017-12-21T22:42:47.385Z,110.28
2017-12-21T22:45:14.886Z,135.70
2017-12-21T22:47:42.382Z,129.07
2017-12-21T22:50:09.902Z,173.40
2017-12-21T22:52:37.410Z,144.27
2017-12-21T22:55:04.918Z,120.40
2017-12-21T22:57:32.455Z,125.63
2017-12-21T22:59:59.962Z,107.10
2017-12-21T23:02:27.456Z,112.90
2017-12-21T23:04:56.590Z,105.50
2017-12-21T23:07:24.090Z,104.07
2017-12-21T23:09:51.587Z,104.03
2017-12-21T23:12:19.107Z,107.23
2017-12-21T23:14:46.604Z,72.63
2017-12-21T23:17:14.094Z,76.70
2017-12-21T23:19:41.613Z,61.63
2017-12-21T23:22:09.123Z,76.47
2017-12-21T23:24:37.390Z,81.33
2017-12-21T23:27:05.759Z,92.03
2017-12-21T23:29:33.261Z,73.93
2017-12-21T23:32:00.754Z,86.90
2017-12-21T23:34:29.197Z,72.18
2017-12-21T23:36:56.722Z,84.53
2017-12-21T23:39:24.211Z,83.07
2017-12-21T23:41:51.742Z,115.53
2017-12-21T23:44:19.238Z,77.83
2017-12-21T23:46:46.750Z,86.67
2017-12-21T23:49:16.013Z,73.70
2017-12-21T23:51:45.300Z,85.93
2017-12-21T23:54:12.794Z,80.17
2017-12-21T23:56:41.229Z,62.93
2017-12-21T23:59:08.718Z,58.20
